sensor_id;sensor_type;location;lat;lon;timestamp;P1;durP1;ratioP1;P2;durP2;ratioP2
44440;SDS011;30146;52.268;20.944;2024-01-06T00:01:19;11.30;;;7.70;;
44440;SDS011;30146;52.268;20.944;2024-01-06T00:03:49;17.80;;;9.90;;
44440;SDS011;30146;52.268;20.944;2024-01-06T00:06:21;17.20;;;10.20;;
44440;SDS011;30146;52.268;20.944;2024-01-06T00:08:53;15.60;;;9.00;;
44440;SDS011;30146;52.268;20.944;2024-01-06T00:11:23;15.20;;;9.20;;
44440;SDS011;30146;52.268;20.944;2024-01-06T00:13:54;22.70;;;11.40;;
44440;SDS011;30146;52.268;20.944;2024-01-06T00:16:25;19.30;;;10.60;;
44440;SDS011;30146;52.268;20.944;2024-01-06T00:18:56;19.30;;;10.00;;
44440;SDS011;30146;52.268;20.944;2024-01-06T00:21:29;18.90;;;9.80;;
44440;SDS011;30146;52.268;20.944;2024-01-06T00:23:59;17.10;;;10.40;;
44440;SDS011;30146;52.268;20.944;2024-01-06T00:26:30;15.80;;;10.20;;
44440;SDS011;30146;52.268;20.944;2024-01-06T00:29:01;20.20;;;10.30;;
44440;SDS011;30146;52.268;20.944;2024-01-06T00:31:32;12.70;;;8.50;;
44440;SDS011;30146;52.268;20.944;2024-01-06T00:34:03;15.60;;;8.60;;
44440;SDS011;30146;52.268;20.944;2024-01-06T00:36:34;13.70;;;9.10;;
44440;SDS011;30146;52.268;20.944;2024-01-06T00:39:05;17.50;;;8.80;;
44440;SDS011;30146;52.268;20.944;2024-01-06T00:41:36;13.30;;;7.60;;
44440;SDS011;30146;52.268;20.944;2024-01-06T00:44:07;13.60;;;8.30;;
44440;SDS011;30146;52.268;20.944;2024-01-06T00:46:37;20.10;;;10.10;;
44440;SDS011;30146;52.268;20.944;2024-01-06T00:49:09;12.90;;;8.10;;
44440;SDS011;30146;52.268;20.944;2024-01-06T00:51:40;10.70;;;6.70;;
44440;SDS011;30146;52.268;20.944;2024-01-06T00:54:11;15.00;;;8.70;;
44440;SDS011;30146;52.268;20.944;2024-01-06T00:56:42;11.60;;;7.80;;
44440;SDS011;30146;52.268;20.944;2024-01-06T00:59:13;11.30;;;6.60;;
44440;SDS011;30146;52.268;20.944;2024-01-06T01:01:44;16.50;;;8.40;;
44440;SDS011;30146;52.268;20.944;2024-01-06T01:04:14;12.80;;;7.50;;
44440;SDS011;30146;52.268;20.944;2024-01-06T01:06:45;11.00;;;7.00;;
44440;SDS011;30146;52.268;20.944;2024-01-06T01:09:16;14.90;;;8.00;;
44440;SDS011;30146;52.268;20.944;2024-01-06T01:11:47;16.10;;;7.20;;
44440;SDS011;30146;52.268;20.944;2024-01-06T01:14:18;17.70;;;7.80;;
44440;SDS011;30146;52.268;20.944;2024-01-06T01:16:49;10.90;;;7.70;;
44440;SDS011;30146;52.268;20.944;2024-01-06T01:19:20;12.60;;;7.00;;
44440;SDS011;30146;52.268;20.944;2024-01-06T01:21:51;16.10;;;8.10;;
44440;SDS011;30146;52.268;20.944;2024-01-06T01:24:23;12.00;;;7.00;;
44440;SDS011;30146;52.268;20.944;2024-01-06T01:26:55;15.20;;;8.10;;
44440;SDS011;30146;52.268;20.944;2024-01-06T01:29:26;12.80;;;7.00;;
44440;SDS011;30146;52.268;20.944;2024-01-06T01:31:57;10.00;;;7.20;;
44440;SDS011;30146;52.268;20.944;2024-01-06T01:34:28;10.50;;;7.20;;
44440;SDS011;30146;52.268;20.944;2024-01-06T01:36:59;12.30;;;7.00;;
44440;SDS011;30146;52.268;20.944;2024-01-06T01:39:30;7.80;;;5.90;;
44440;SDS011;30146;52.268;20.944;2024-01-06T01:42:00;12.80;;;7.80;;
44440;SDS011;30146;52.268;20.944;2024-01-06T01:44:31;11.10;;;7.70;;
44440;SDS011;30146;52.268;20.944;2024-01-06T01:47:02;14.30;;;7.10;;
44440;SDS011;30146;52.268;20.944;2024-01-06T01:49:34;11.60;;;6.70;;
44440;SDS011;30146;52.268;20.944;2024-01-06T01:52:06;14.50;;;7.70;;
44440;SDS011;30146;52.268;20.944;2024-01-06T01:54:37;11.50;;;7.10;;
44440;SDS011;30146;52.268;20.944;2024-01-06T01:57:08;13.10;;;7.80;;
44440;SDS011;30146;52.268;20.944;2024-01-06T01:59:40;10.10;;;6.90;;
44440;SDS011;30146;52.268;20.944;2024-01-06T02:02:11;17.60;;;6.80;;
44440;SDS011;30146;52.268;20.944;2024-01-06T02:04:43;11.90;;;7.20;;
44440;SDS011;30146;52.268;20.944;2024-01-06T02:07:16;11.10;;;6.90;;
44440;SDS011;30146;52.268;20.944;2024-01-06T02:09:46;9.70;;;6.90;;
44440;SDS011;30146;52.268;20.944;2024-01-06T02:12:17;12.70;;;6.40;;
44440;SDS011;30146;52.268;20.944;2024-01-06T02:14:48;11.30;;;7.10;;
44440;SDS011;30146;52.268;20.944;2024-01-06T02:17:19;10.10;;;5.60;;
44440;SDS011;30146;52.268;20.944;2024-01-06T02:19:50;10.50;;;6.10;;
44440;SDS011;30146;52.268;20.944;2024-01-06T02:22:21;9.30;;;5.80;;
44440;SDS011;30146;52.268;20.944;2024-01-06T02:24:52;6.60;;;4.90;;
44440;SDS011;30146;52.268;20.944;2024-01-06T02:27:23;8.90;;;6.20;;
44440;SDS011;30146;52.268;20.944;2024-01-06T02:29:54;13.90;;;5.80;;
44440;SDS011;30146;52.268;20.944;2024-01-06T02:32:25;9.30;;;5.50;;
44440;SDS011;30146;52.268;20.944;2024-01-06T02:34:56;10.80;;;5.70;;
44440;SDS011;30146;52.268;20.944;2024-01-06T02:37:26;10.20;;;5.80;;
44440;SDS011;30146;52.268;20.944;2024-01-06T02:39:57;10.80;;;5.90;;
44440;SDS011;30146;52.268;20.944;2024-01-06T02:42:28;9.70;;;6.60;;
44440;SDS011;30146;52.268;20.944;2024-01-06T02:44:58;12.80;;;6.70;;
44440;SDS011;30146;52.268;20.944;2024-01-06T02:47:29;11.70;;;7.10;;
44440;SDS011;30146;52.268;20.944;2024-01-06T02:50:01;12.50;;;7.20;;
44440;SDS011;30146;52.268;20.944;2024-01-06T02:52:32;11.50;;;6.70;;
44440;SDS011;30146;52.268;20.944;2024-01-06T02:55:03;11.80;;;6.70;;
44440;SDS011;30146;52.268;20.944;2024-01-06T02:57:35;11.10;;;7.50;;
44440;SDS011;30146;52.268;20.944;2024-01-06T03:00:07;8.90;;;6.70;;
44440;SDS011;30146;52.268;20.944;2024-01-06T03:02:40;13.10;;;8.30;;
44440;SDS011;30146;52.268;20.944;2024-01-06T03:05:11;11.10;;;6.80;;
44440;SDS011;30146;52.268;20.944;2024-01-06T03:07:42;9.00;;;5.60;;
44440;SDS011;30146;52.268;20.944;2024-01-06T03:10:13;11.80;;;6.90;;
44440;SDS011;30146;52.268;20.944;2024-01-06T03:12:44;11.00;;;7.00;;
44440;SDS011;30146;52.268;20.944;2024-01-06T03:15:15;12.40;;;7.30;;
44440;SDS011;30146;52.268;20.944;2024-01-06T03:17:47;14.80;;;8.60;;
44440;SDS011;30146;52.268;20.944;2024-01-06T03:20:18;18.40;;;7.70;;
44440;SDS011;30146;52.268;20.944;2024-01-06T03:22:49;13.80;;;8.10;;
44440;SDS011;30146;52.268;20.944;2024-01-06T03:25:20;17.00;;;8.80;;
44440;SDS011;30146;52.268;20.944;2024-01-06T03:27:51;14.10;;;9.00;;
44440;SDS011;30146;52.268;20.944;2024-01-06T03:30:22;15.20;;;8.60;;
44440;SDS011;30146;52.268;20.944;2024-01-06T03:32:53;13.60;;;7.40;;
44440;SDS011;30146;52.268;20.944;2024-01-06T03:35:24;14.50;;;8.70;;
44440;SDS011;30146;52.268;20.944;2024-01-06T03:37:57;10.80;;;7.40;;
44440;SDS011;30146;52.268;20.944;2024-01-06T03:40:29;14.10;;;8.80;;
44440;SDS011;30146;52.268;20.944;2024-01-06T03:43:00;14.60;;;8.20;;
44440;SDS011;30146;52.268;20.944;2024-01-06T03:45:31;10.00;;;7.00;;
44440;SDS011;30146;52.268;20.944;2024-01-06T03:48:02;14.00;;;8.90;;
44440;SDS011;30146;52.268;20.944;2024-01-06T03:50:34;10.80;;;7.40;;
44440;SDS011;30146;52.268;20.944;2024-01-06T03:53:05;14.60;;;8.30;;
44440;SDS011;30146;52.268;20.944;2024-01-06T03:55:36;12.50;;;7.70;;
44440;SDS011;30146;52.268;20.944;2024-01-06T03:58:07;13.60;;;7.50;;
44440;SDS011;30146;52.268;20.944;2024-01-06T04:00:38;16.80;;;9.10;;
44440;SDS011;30146;52.268;20.944;2024-01-06T04:03:10;13.50;;;9.20;;
44440;SDS011;30146;52.268;20.944;2024-01-06T04:05:41;14.70;;;8.50;;
44440;SDS011;30146;52.268;20.944;2024-01-06T04:08:12;13.00;;;7.60;;
44440;SDS011;30146;52.268;20.944;2024-01-06T04:10:43;13.30;;;10.00;;
44440;SDS011;30146;52.268;20.944;2024-01-06T04:13:15;16.40;;;10.60;;
44440;SDS011;30146;52.268;20.944;2024-01-06T04:15:47;11.50;;;7.50;;
44440;SDS011;30146;52.268;20.944;2024-01-06T04:18:18;14.40;;;9.80;;
44440;SDS011;30146;52.268;20.944;2024-01-06T04:20:49;14.20;;;9.10;;
44440;SDS011;30146;52.268;20.944;2024-01-06T04:23:20;15.30;;;9.30;;
44440;SDS011;30146;52.268;20.944;2024-01-06T04:25:53;19.90;;;10.30;;
44440;SDS011;30146;52.268;20.944;2024-01-06T04:28:24;13.60;;;9.70;;
44440;SDS011;30146;52.268;20.944;2024-01-06T04:30:55;12.20;;;8.30;;
44440;SDS011;30146;52.268;20.944;2024-01-06T04:33:26;17.80;;;10.10;;
44440;SDS011;30146;52.268;20.944;2024-01-06T04:35:57;13.20;;;8.50;;
44440;SDS011;30146;52.268;20.944;2024-01-06T04:38:29;13.20;;;8.40;;
44440;SDS011;30146;52.268;20.944;2024-01-06T04:41:00;13.10;;;9.60;;
44440;SDS011;30146;52.268;20.944;2024-01-06T04:43:31;12.30;;;8.10;;
44440;SDS011;30146;52.268;20.944;2024-01-06T04:46:02;19.20;;;9.70;;
44440;SDS011;30146;52.268;20.944;2024-01-06T04:48:33;16.40;;;8.90;;
44440;SDS011;30146;52.268;20.944;2024-01-06T04:51:04;15.10;;;8.30;;
44440;SDS011;30146;52.268;20.944;2024-01-06T04:53:38;13.70;;;8.70;;
44440;SDS011;30146;52.268;20.944;2024-01-06T04:56:09;11.70;;;8.40;;
44440;SDS011;30146;52.268;20.944;2024-01-06T04:58:39;14.10;;;9.10;;
44440;SDS011;30146;52.268;20.944;2024-01-06T05:01:11;16.50;;;8.80;;
44440;SDS011;30146;52.268;20.944;2024-01-06T05:03:42;15.20;;;8.20;;
44440;SDS011;30146;52.268;20.944;2024-01-06T05:06:13;11.90;;;7.20;;
44440;SDS011;30146;52.268;20.944;2024-01-06T05:08:44;13.40;;;8.20;;
44440;SDS011;30146;52.268;20.944;2024-01-06T05:11:15;15.70;;;8.10;;
44440;SDS011;30146;52.268;20.944;2024-01-06T05:13:45;17.10;;;9.10;;
44440;SDS011;30146;52.268;20.944;2024-01-06T05:16:16;14.00;;;9.20;;
44440;SDS011;30146;52.268;20.944;2024-01-06T05:18:47;11.30;;;7.40;;
44440;SDS011;30146;52.268;20.944;2024-01-06T05:21:18;14.90;;;8.20;;
44440;SDS011;30146;52.268;20.944;2024-01-06T05:23:49;13.90;;;8.70;;
44440;SDS011;30146;52.268;20.944;2024-01-06T05:26:20;14.10;;;8.10;;
44440;SDS011;30146;52.268;20.944;2024-01-06T05:28:51;11.20;;;7.20;;
44440;SDS011;30146;52.268;20.944;2024-01-06T05:31:22;12.10;;;7.10;;
44440;SDS011;30146;52.268;20.944;2024-01-06T05:33:53;18.70;;;11.00;;
44440;SDS011;30146;52.268;20.944;2024-01-06T05:36:24;17.90;;;9.00;;
44440;SDS011;30146;52.268;20.944;2024-01-06T05:38:55;16.10;;;9.00;;
44440;SDS011;30146;52.268;20.944;2024-01-06T05:41:25;15.70;;;8.80;;
44440;SDS011;30146;52.268;20.944;2024-01-06T05:43:56;11.90;;;8.60;;
44440;SDS011;30146;52.268;20.944;2024-01-06T05:46:27;14.20;;;9.00;;
44440;SDS011;30146;52.268;20.944;2024-01-06T05:48:58;17.10;;;10.70;;
44440;SDS011;30146;52.268;20.944;2024-01-06T05:51:28;18.10;;;10.20;;
44440;SDS011;30146;52.268;20.944;2024-01-06T05:54:00;13.10;;;8.90;;
44440;SDS011;30146;52.268;20.944;2024-01-06T05:56:31;17.20;;;8.70;;
44440;SDS011;30146;52.268;20.944;2024-01-06T05:59:02;16.80;;;10.10;;
44440;SDS011;30146;52.268;20.944;2024-01-06T06:01:33;18.20;;;10.50;;
44440;SDS011;30146;52.268;20.944;2024-01-06T06:04:04;18.40;;;10.30;;
44440;SDS011;30146;52.268;20.944;2024-01-06T06:06:35;17.20;;;9.00;;
44440;SDS011;30146;52.268;20.944;2024-01-06T06:09:06;13.60;;;8.70;;
44440;SDS011;30146;52.268;20.944;2024-01-06T06:11:38;18.10;;;10.90;;
44440;SDS011;30146;52.268;20.944;2024-01-06T06:14:09;17.30;;;10.20;;
44440;SDS011;30146;52.268;20.944;2024-01-06T06:16:40;18.40;;;9.90;;
44440;SDS011;30146;52.268;20.944;2024-01-06T06:19:11;17.40;;;10.20;;
44440;SDS011;30146;52.268;20.944;2024-01-06T06:21:42;30.70;;;15.80;;
44440;SDS011;30146;52.268;20.944;2024-01-06T06:24:14;22.40;;;11.30;;
44440;SDS011;30146;52.268;20.944;2024-01-06T06:26:45;17.90;;;11.20;;
44440;SDS011;30146;52.268;20.944;2024-01-06T06:29:16;18.00;;;11.00;;
44440;SDS011;30146;52.268;20.944;2024-01-06T06:31:48;19.40;;;10.30;;
44440;SDS011;30146;52.268;20.944;2024-01-06T06:34:19;20.30;;;10.40;;
44440;SDS011;30146;52.268;20.944;2024-01-06T06:36:51;16.30;;;10.10;;
44440;SDS011;30146;52.268;20.944;2024-01-06T06:39:22;17.10;;;8.70;;
44440;SDS011;30146;52.268;20.944;2024-01-06T06:41:52;18.90;;;11.50;;
44440;SDS011;30146;52.268;20.944;2024-01-06T06:44:23;16.10;;;10.00;;
44440;SDS011;30146;52.268;20.944;2024-01-06T06:46:54;22.10;;;12.30;;
44440;SDS011;30146;52.268;20.944;2024-01-06T06:49:25;17.60;;;11.30;;
44440;SDS011;30146;52.268;20.944;2024-01-06T06:51:56;16.80;;;10.40;;
44440;SDS011;30146;52.268;20.944;2024-01-06T06:54:26;18.80;;;10.80;;
44440;SDS011;30146;52.268;20.944;2024-01-06T06:56:57;15.20;;;10.50;;
44440;SDS011;30146;52.268;20.944;2024-01-06T06:59:28;15.30;;;10.20;;
44440;SDS011;30146;52.268;20.944;2024-01-06T07:01:59;14.80;;;9.10;;
44440;SDS011;30146;52.268;20.944;2024-01-06T07:04:30;19.10;;;10.10;;
44440;SDS011;30146;52.268;20.944;2024-01-06T07:07:01;17.50;;;10.20;;
44440;SDS011;30146;52.268;20.944;2024-01-06T07:09:32;15.40;;;9.60;;
44440;SDS011;30146;52.268;20.944;2024-01-06T07:12:04;16.10;;;10.20;;
44440;SDS011;30146;52.268;20.944;2024-01-06T07:14:35;18.20;;;9.60;;
44440;SDS011;30146;52.268;20.944;2024-01-06T07:17:06;16.00;;;10.20;;
44440;SDS011;30146;52.268;20.944;2024-01-06T07:19:38;18.00;;;11.10;;
44440;SDS011;30146;52.268;20.944;2024-01-06T07:22:09;12.40;;;8.60;;
44440;SDS011;30146;52.268;20.944;2024-01-06T07:24:40;14.60;;;9.40;;
44440;SDS011;30146;52.268;20.944;2024-01-06T07:27:11;17.90;;;11.40;;
44440;SDS011;30146;52.268;20.944;2024-01-06T07:29:43;22.00;;;10.70;;
44440;SDS011;30146;52.268;20.944;2024-01-06T07:32:14;17.30;;;10.90;;
44440;SDS011;30146;52.268;20.944;2024-01-06T07:34:49;19.10;;;9.80;;
44440;SDS011;30146;52.268;20.944;2024-01-06T07:37:20;18.60;;;10.60;;
44440;SDS011;30146;52.268;20.944;2024-01-06T07:39:52;18.40;;;10.50;;
44440;SDS011;30146;52.268;20.944;2024-01-06T07:42:23;17.90;;;9.80;;
44440;SDS011;30146;52.268;20.944;2024-01-06T07:44:54;15.50;;;11.10;;
44440;SDS011;30146;52.268;20.944;2024-01-06T07:47:24;12.70;;;9.90;;
44440;SDS011;30146;52.268;20.944;2024-01-06T07:49:55;16.90;;;10.20;;
44440;SDS011;30146;52.268;20.944;2024-01-06T07:52:26;20.50;;;12.00;;
44440;SDS011;30146;52.268;20.944;2024-01-06T07:54:57;16.30;;;10.10;;
44440;SDS011;30146;52.268;20.944;2024-01-06T07:57:28;23.30;;;11.80;;
44440;SDS011;30146;52.268;20.944;2024-01-06T07:59:59;16.60;;;11.60;;
44440;SDS011;30146;52.268;20.944;2024-01-06T08:02:39;23.20;;;10.80;;
44440;SDS011;30146;52.268;20.944;2024-01-06T08:05:09;18.80;;;12.10;;
44440;SDS011;30146;52.268;20.944;2024-01-06T08:07:40;16.00;;;9.70;;
44440;SDS011;30146;52.268;20.944;2024-01-06T08:10:11;17.50;;;10.40;;
44440;SDS011;30146;52.268;20.944;2024-01-06T08:12:43;19.80;;;10.40;;
44440;SDS011;30146;52.268;20.944;2024-01-06T08:15:14;19.00;;;10.20;;
44440;SDS011;30146;52.268;20.944;2024-01-06T08:17:45;19.60;;;12.40;;
44440;SDS011;30146;52.268;20.944;2024-01-06T08:20:17;19.10;;;11.50;;
44440;SDS011;30146;52.268;20.944;2024-01-06T08:22:48;16.40;;;10.50;;
44440;SDS011;30146;52.268;20.944;2024-01-06T08:25:19;17.10;;;10.60;;
44440;SDS011;30146;52.268;20.944;2024-01-06T08:27:50;15.70;;;9.70;;
44440;SDS011;30146;52.268;20.944;2024-01-06T08:30:24;15.90;;;10.40;;
44440;SDS011;30146;52.268;20.944;2024-01-06T08:32:57;17.40;;;9.10;;
44440;SDS011;30146;52.268;20.944;2024-01-06T08:35:30;18.70;;;10.30;;
44440;SDS011;30146;52.268;20.944;2024-01-06T08:38:00;18.80;;;10.10;;
44440;SDS011;30146;52.268;20.944;2024-01-06T08:40:31;16.60;;;10.60;;
44440;SDS011;30146;52.268;20.944;2024-01-06T08:43:02;23.10;;;13.00;;
44440;SDS011;30146;52.268;20.944;2024-01-06T08:45:34;24.50;;;12.40;;
44440;SDS011;30146;52.268;20.944;2024-01-06T08:48:06;17.70;;;10.30;;
44440;SDS011;30146;52.268;20.944;2024-01-06T08:50:37;16.20;;;9.50;;
44440;SDS011;30146;52.268;20.944;2024-01-06T08:53:08;19.90;;;11.10;;
44440;SDS011;30146;52.268;20.944;2024-01-06T08:55:39;17.30;;;10.10;;
44440;SDS011;30146;52.268;20.944;2024-01-06T08:58:13;15.90;;;10.00;;
44440;SDS011;30146;52.268;20.944;2024-01-06T09:00:46;15.30;;;10.90;;
44440;SDS011;30146;52.268;20.944;2024-01-06T09:03:18;12.80;;;8.90;;
44440;SDS011;30146;52.268;20.944;2024-01-06T09:05:55;12.30;;;7.90;;
44440;SDS011;30146;52.268;20.944;2024-01-06T09:08:26;13.60;;;9.10;;
44440;SDS011;30146;52.268;20.944;2024-01-06T09:10:57;17.60;;;10.10;;
44440;SDS011;30146;52.268;20.944;2024-01-06T09:13:28;20.00;;;9.70;;
44440;SDS011;30146;52.268;20.944;2024-01-06T09:16:02;13.70;;;9.20;;
44440;SDS011;30146;52.268;20.944;2024-01-06T09:18:33;14.40;;;9.00;;
44440;SDS011;30146;52.268;20.944;2024-01-06T09:21:05;14.10;;;9.40;;
44440;SDS011;30146;52.268;20.944;2024-01-06T09:23:36;15.60;;;9.30;;
44440;SDS011;30146;52.268;20.944;2024-01-06T09:26:07;18.40;;;10.20;;
44440;SDS011;30146;52.268;20.944;2024-01-06T09:28:40;15.40;;;8.70;;
44440;SDS011;30146;52.268;20.944;2024-01-06T09:31:11;14.30;;;9.60;;
44440;SDS011;30146;52.268;20.944;2024-01-06T09:33:43;17.30;;;8.90;;
44440;SDS011;30146;52.268;20.944;2024-01-06T09:36:14;13.10;;;8.10;;
44440;SDS011;30146;52.268;20.944;2024-01-06T09:38:44;11.50;;;8.10;;
44440;SDS011;30146;52.268;20.944;2024-01-06T09:41:15;13.70;;;8.30;;
44440;SDS011;30146;52.268;20.944;2024-01-06T09:43:46;18.30;;;8.90;;
44440;SDS011;30146;52.268;20.944;2024-01-06T09:46:21;12.60;;;8.60;;
44440;SDS011;30146;52.268;20.944;2024-01-06T09:48:54;18.00;;;9.40;;
44440;SDS011;30146;52.268;20.944;2024-01-06T09:51:27;14.40;;;8.60;;
44440;SDS011;30146;52.268;20.944;2024-01-06T09:53:59;15.30;;;8.10;;
44440;SDS011;30146;52.268;20.944;2024-01-06T09:56:36;10.60;;;7.50;;
44440;SDS011;30146;52.268;20.944;2024-01-06T09:59:08;14.30;;;7.90;;
44440;SDS011;30146;52.268;20.944;2024-01-06T10:01:39;14.60;;;9.00;;
44440;SDS011;30146;52.268;20.944;2024-01-06T10:04:11;15.30;;;8.90;;
44440;SDS011;30146;52.268;20.944;2024-01-06T10:06:48;15.50;;;8.00;;
44440;SDS011;30146;52.268;20.944;2024-01-06T10:09:19;13.00;;;7.60;;
44440;SDS011;30146;52.268;20.944;2024-01-06T10:11:57;13.20;;;7.80;;
44440;SDS011;30146;52.268;20.944;2024-01-06T10:14:28;12.10;;;8.00;;
44440;SDS011;30146;52.268;20.944;2024-01-06T10:16:59;17.10;;;8.90;;
44440;SDS011;30146;52.268;20.944;2024-01-06T10:19:30;13.70;;;7.70;;
44440;SDS011;30146;52.268;20.944;2024-01-06T10:22:02;13.50;;;8.30;;
44440;SDS011;30146;52.268;20.944;2024-01-06T10:24:34;12.50;;;8.20;;
44440;SDS011;30146;52.268;20.944;2024-01-06T10:27:07;12.50;;;8.30;;
44440;SDS011;30146;52.268;20.944;2024-01-06T10:29:38;15.40;;;8.00;;
44440;SDS011;30146;52.268;20.944;2024-01-06T10:32:10;11.70;;;7.30;;
44440;SDS011;30146;52.268;20.944;2024-01-06T10:34:41;15.50;;;9.00;;
44440;SDS011;30146;52.268;20.944;2024-01-06T10:37:13;12.80;;;7.30;;
44440;SDS011;30146;52.268;20.944;2024-01-06T10:39:46;10.50;;;7.90;;
44440;SDS011;30146;52.268;20.944;2024-01-06T10:42:21;13.50;;;8.20;;
44440;SDS011;30146;52.268;20.944;2024-01-06T10:44:52;11.10;;;6.60;;
44440;SDS011;30146;52.268;20.944;2024-01-06T10:47:24;11.00;;;7.20;;
44440;SDS011;30146;52.268;20.944;2024-01-06T10:49:58;14.50;;;8.40;;
44440;SDS011;30146;52.268;20.944;2024-01-06T10:52:30;10.70;;;6.10;;
44440;SDS011;30146;52.268;20.944;2024-01-06T10:55:01;11.10;;;7.10;;
44440;SDS011;30146;52.268;20.944;2024-01-06T10:57:33;15.60;;;7.80;;
44440;SDS011;30146;52.268;20.944;2024-01-06T11:00:07;13.00;;;8.50;;
44440;SDS011;30146;52.268;20.944;2024-01-06T11:02:39;12.00;;;8.10;;
44440;SDS011;30146;52.268;20.944;2024-01-06T11:05:10;14.50;;;8.40;;
44440;SDS011;30146;52.268;20.944;2024-01-06T11:07:42;11.40;;;7.00;;
44440;SDS011;30146;52.268;20.944;2024-01-06T11:10:15;17.50;;;8.40;;
44440;SDS011;30146;52.268;20.944;2024-01-06T11:12:47;17.20;;;9.00;;
44440;SDS011;30146;52.268;20.944;2024-01-06T11:15:41;11.80;;;8.00;;
44440;SDS011;30146;52.268;20.944;2024-01-06T11:18:32;13.30;;;6.90;;
44440;SDS011;30146;52.268;20.944;2024-01-06T11:21:16;12.80;;;8.10;;
44440;SDS011;30146;52.268;20.944;2024-01-06T14:19:45;9.20;;;6.20;;
44440;SDS011;30146;52.268;20.944;2024-01-06T14:22:16;9.70;;;5.40;;
44440;SDS011;30146;52.268;20.944;2024-01-06T14:24:47;14.60;;;7.40;;
44440;SDS011;30146;52.268;20.944;2024-01-06T14:27:19;10.90;;;6.30;;
44440;SDS011;30146;52.268;20.944;2024-01-06T14:29:54;13.80;;;7.70;;
44440;SDS011;30146;52.268;20.944;2024-01-06T14:32:27;17.70;;;8.10;;
44440;SDS011;30146;52.268;20.944;2024-01-06T14:34:59;13.70;;;7.20;;
44440;SDS011;30146;52.268;20.944;2024-01-06T14:37:33;13.80;;;7.20;;
44440;SDS011;30146;52.268;20.944;2024-01-06T14:40:06;15.60;;;7.90;;
44440;SDS011;30146;52.268;20.944;2024-01-06T14:42:38;13.70;;;7.80;;
44440;SDS011;30146;52.268;20.944;2024-01-06T14:45:09;13.70;;;7.30;;
44440;SDS011;30146;52.268;20.944;2024-01-06T14:47:42;12.50;;;6.50;;
44440;SDS011;30146;52.268;20.944;2024-01-06T14:50:16;9.30;;;5.40;;
44440;SDS011;30146;52.268;20.944;2024-01-06T14:52:47;12.60;;;7.70;;
44440;SDS011;30146;52.268;20.944;2024-01-06T14:55:18;14.80;;;6.60;;
44440;SDS011;30146;52.268;20.944;2024-01-06T14:57:50;12.50;;;7.40;;
44440;SDS011;30146;52.268;20.944;2024-01-06T15:00:20;9.80;;;5.40;;
44440;SDS011;30146;52.268;20.944;2024-01-06T15:02:51;11.80;;;6.60;;
44440;SDS011;30146;52.268;20.944;2024-01-06T15:05:26;7.00;;;5.20;;
44440;SDS011;30146;52.268;20.944;2024-01-06T15:07:58;7.00;;;4.20;;
44440;SDS011;30146;52.268;20.944;2024-01-06T15:10:29;10.90;;;5.60;;
44440;SDS011;30146;52.268;20.944;2024-01-06T15:12:59;8.50;;;4.80;;
44440;SDS011;30146;52.268;20.944;2024-01-06T15:15:32;8.40;;;4.80;;
44440;SDS011;30146;52.268;20.944;2024-01-06T15:18:03;8.80;;;4.80;;
44440;SDS011;30146;52.268;20.944;2024-01-06T15:20:34;8.00;;;5.00;;
44440;SDS011;30146;52.268;20.944;2024-01-06T15:23:06;7.10;;;4.70;;
44440;SDS011;30146;52.268;20.944;2024-01-06T15:25:37;5.50;;;4.50;;
44440;SDS011;30146;52.268;20.944;2024-01-06T15:28:08;7.40;;;4.30;;
44440;SDS011;30146;52.268;20.944;2024-01-06T15:30:40;7.60;;;4.60;;
44440;SDS011;30146;52.268;20.944;2024-01-06T15:33:15;9.00;;;4.50;;
44440;SDS011;30146;52.268;20.944;2024-01-06T15:35:46;5.60;;;4.20;;
44440;SDS011;30146;52.268;20.944;2024-01-06T15:38:18;6.50;;;4.50;;
44440;SDS011;30146;52.268;20.944;2024-01-06T15:40:48;7.30;;;4.40;;
44440;SDS011;30146;52.268;20.944;2024-01-06T15:43:20;10.00;;;4.90;;
44440;SDS011;30146;52.268;20.944;2024-01-06T15:45:52;5.90;;;4.60;;
44440;SDS011;30146;52.268;20.944;2024-01-06T15:48:23;8.40;;;4.40;;
44440;SDS011;30146;52.268;20.944;2024-01-06T15:50:54;5.90;;;4.70;;
44440;SDS011;30146;52.268;20.944;2024-01-06T15:53:26;7.00;;;5.10;;
44440;SDS011;30146;52.268;20.944;2024-01-06T15:55:59;8.20;;;5.00;;
44440;SDS011;30146;52.268;20.944;2024-01-06T15:58:30;10.80;;;5.50;;
44440;SDS011;30146;52.268;20.944;2024-01-06T16:01:01;9.90;;;5.70;;
44440;SDS011;30146;52.268;20.944;2024-01-06T16:03:37;9.90;;;5.20;;
44440;SDS011;30146;52.268;20.944;2024-01-06T16:06:08;8.30;;;5.50;;
44440;SDS011;30146;52.268;20.944;2024-01-06T16:08:40;7.70;;;4.30;;
44440;SDS011;30146;52.268;20.944;2024-01-06T16:11:11;8.70;;;5.10;;
44440;SDS011;30146;52.268;20.944;2024-01-06T16:13:42;14.20;;;5.90;;
44440;SDS011;30146;52.268;20.944;2024-01-06T16:16:13;7.90;;;5.50;;
44440;SDS011;30146;52.268;20.944;2024-01-06T16:18:44;11.50;;;4.80;;
44440;SDS011;30146;52.268;20.944;2024-01-06T16:21:21;7.40;;;4.80;;
44440;SDS011;30146;52.268;20.944;2024-01-06T16:23:53;10.80;;;4.70;;
44440;SDS011;30146;52.268;20.944;2024-01-06T16:26:34;11.30;;;5.60;;
44440;SDS011;30146;52.268;20.944;2024-01-06T16:29:05;8.90;;;5.10;;
44440;SDS011;30146;52.268;20.944;2024-01-06T16:31:36;11.90;;;5.00;;
44440;SDS011;30146;52.268;20.944;2024-01-06T16:34:07;9.50;;;4.60;;
44440;SDS011;30146;52.268;20.944;2024-01-06T16:36:38;7.40;;;5.30;;
44440;SDS011;30146;52.268;20.944;2024-01-06T16:39:10;7.50;;;5.10;;
44440;SDS011;30146;52.268;20.944;2024-01-06T16:41:41;9.20;;;5.70;;
44440;SDS011;30146;52.268;20.944;2024-01-06T16:44:12;16.20;;;5.20;;
44440;SDS011;30146;52.268;20.944;2024-01-06T16:46:43;13.80;;;6.30;;
44440;SDS011;30146;52.268;20.944;2024-01-06T16:49:14;12.80;;;6.10;;
44440;SDS011;30146;52.268;20.944;2024-01-06T16:51:45;11.10;;;6.10;;
44440;SDS011;30146;52.268;20.944;2024-01-06T16:54:15;9.20;;;5.90;;
44440;SDS011;30146;52.268;20.944;2024-01-06T16:56:46;7.40;;;4.90;;
44440;SDS011;30146;52.268;20.944;2024-01-06T16:59:17;11.00;;;5.40;;
44440;SDS011;30146;52.268;20.944;2024-01-06T17:01:49;7.90;;;5.30;;
44440;SDS011;30146;52.268;20.944;2024-01-06T17:04:20;9.00;;;5.20;;
44440;SDS011;30146;52.268;20.944;2024-01-06T17:06:51;11.10;;;5.70;;
44440;SDS011;30146;52.268;20.944;2024-01-06T17:09:25;9.20;;;6.20;;
44440;SDS011;30146;52.268;20.944;2024-01-06T17:11:56;8.40;;;5.50;;
44440;SDS011;30146;52.268;20.944;2024-01-06T17:14:27;12.00;;;5.00;;
44440;SDS011;30146;52.268;20.944;2024-01-06T17:16:58;11.30;;;6.60;;
44440;SDS011;30146;52.268;20.944;2024-01-06T17:19:28;10.30;;;5.20;;
44440;SDS011;30146;52.268;20.944;2024-01-06T17:21:59;13.40;;;6.90;;
44440;SDS011;30146;52.268;20.944;2024-01-06T17:24:30;15.50;;;6.70;;
44440;SDS011;30146;52.268;20.944;2024-01-06T17:27:03;12.30;;;6.40;;
44440;SDS011;30146;52.268;20.944;2024-01-06T17:29:34;13.70;;;6.60;;
44440;SDS011;30146;52.268;20.944;2024-01-06T17:32:05;9.90;;;6.30;;
44440;SDS011;30146;52.268;20.944;2024-01-06T17:34:36;8.60;;;5.70;;
44440;SDS011;30146;52.268;20.944;2024-01-06T17:37:07;10.50;;;5.40;;
44440;SDS011;30146;52.268;20.944;2024-01-06T17:39:38;13.00;;;6.30;;
44440;SDS011;30146;52.268;20.944;2024-01-06T17:42:10;13.00;;;6.30;;